Time;durP1;ratioP1;P1;durP2;ratioP2;P2;SDS_P1;SDS_P2;PMS_P1;PMS_P2;Temp;Humidity;BMP_temperature;BMP_pressure;BME280_temperature;BME280_humidity;BME280_pressure;Samples;Min_cycle;Max_cycle;Signal;HPM_P1;HPM_P2
2024/04/10 00:01:53;;;;;;;;;;;;;;;7.77;94.14;101438.56;5464028;26;19937;-75
2024/04/10 00:04:18;;;;;;;;;;;;;;;7.66;94.85;101443.25;5472965;26;19928;-72
2024/04/10 00:06:43;;;;;;;;;;;;;;;7.61;95.11;101440.22;5480313;26;20732;-72
2024/04/10 00:09:09;;;;;;;;;;;;;;;7.58;95.45;101446.75;5462864;26;20256;-73
2024/04/10 00:11:37;;;;;;;;;;;;;;;7.54;95.42;101441.88;5462432;26;20350;-72
2024/04/10 00:14:02;;;;;;;;;;;;;;;7.53;95.95;101453.59;5458096;26;19944;-73
2024/04/10 00:16:32;;;;;;;;;;;;;;;7.39;97.16;101463.06;5475175;26;19932;-73
2024/04/10 00:18:58;;;;;;;;;;;;;;;7.41;97.34;101456.53;5457618;26;20352;-73
2024/04/10 00:21:23;;;;;;;;;;;;;;;7.36;97.37;101466.91;5474835;26;19935;-73
2024/04/10 00:23:49;;;;;;;;;;;;;;;7.33;97.80;101474.41;5452373;26;19935;-73
2024/04/10 00:26:14;;;;;;;;;;;;;;;7.26;99.00;101474.22;5454439;26;19928;-72
2024/04/10 00:28:39;;;;;;;;;;;;;;;7.28;99.04;101482.94;5478020;26;19934;-72
2024/04/10 00:31:05;;;;;;;;;;;;;;;7.33;98.69;101483.31;5453297;26;19928;-72
2024/04/10 00:33:30;;;;;;;;;;;;;;;7.35;99.11;101485.81;5480150;26;19935;-72
2024/04/10 00:35:55;;;;;;;;;;;;;;;7.34;98.93;101487.66;5452987;26;19929;-72
2024/04/10 00:38:23;;;;;;;;;;;;;;;7.39;98.76;101493.41;5452090;26;19929;-72
2024/04/10 00:40:55;;;;;;;;;;;;;;;7.33;99.35;101480.63;5464539;26;19996;-72
2024/04/10 00:43:21;;;;;;;;;;;;;;;7.27;99.21;101497.31;5464545;26;19964;-72
2024/04/10 00:45:46;;;;;;;;;;;;;;;7.18;100.00;101506.31;5473448;26;19996;-72
2024/04/10 00:48:14;;;;;;;;;;;;;;;7.09;100.00;101516.16;5485419;26;19935;-72
2024/04/10 00:50:39;;;;;;;;;;;;;;;7.04;99.95;101513.94;5481038;26;19934;-72
2024/04/10 00:53:05;;;;;;;;;;;;;;;7.06;99.88;101517.28;5481248;26;19928;-72
2024/04/10 00:55:33;;;;;;;;;;;;;;;7.08;99.99;101517.13;5470605;26;19938;-72
2024/04/10 00:57:58;;;;;;;;;;;;;;;7.08;99.59;101515.28;5463646;26;19936;-71
2024/04/10 01:00:24;;;;;;;;;;;;;;;7.03;99.93;101520.28;5451164;26;19936;-71
2024/04/10 01:02:49;;;;;;;;;;;;;;;6.94;100.00;101527.44;5472623;26;20358;-72
2024/04/10 01:05:14;;;;;;;;;;;;;;;6.94;100.00;101529.25;5472718;26;20395;-72
2024/04/10 01:07:40;;;;;;;;;;;;;;;6.89;100.00;101529.72;5486828;26;19940;-71
2024/04/10 01:10:05;;;;;;;;;;;;;;;6.85;100.00;101531.03;5470212;26;20340;-71
2024/04/10 01:12:33;;;;;;;;;;;;;;;6.82;100.00;101540.22;5453483;26;20357;-73
2024/04/10 01:14:59;;;;;;;;;;;;;;;6.82;100.00;101534.88;5485291;26;20355;-73
2024/04/10 01:17:24;;;;;;;;;;;;;;;6.85;100.00;101539.06;5481687;26;19973;-72
2024/04/10 01:19:49;;;;;;;;;;;;;;;6.81;100.00;101541.22;5450518;26;19932;-73
2024/04/10 01:22:14;;;;;;;;;;;;;;;6.74;100.00;101540.13;5463763;26;20000;-72
2024/04/10 01:24:40;;;;;;;;;;;;;;;6.74;100.00;101553.50;5469559;26;19977;-72
2024/04/10 01:27:05;;;;;;;;;;;;;;;6.76;100.00;101556.88;5475226;26;20366;-72
2024/04/10 01:29:30;;;;;;;;;;;;;;;6.73;100.00;101562.53;5456192;26;20316;-73
2024/04/10 01:31:55;;;;;;;;;;;;;;;6.71;100.00;101564.53;5478505;26;20461;-72
2024/04/10 01:34:21;;;;;;;;;;;;;;;6.89;100.00;101569.88;5479456;26;20011;-73
2024/04/10 01:36:46;;;;;;;;;;;;;;;6.81;100.00;101578.69;5450744;26;19944;-72
2024/04/10 01:39:11;;;;;;;;;;;;;;;6.88;100.00;101583.44;5450517;26;20309;-72
2024/04/10 01:41:40;;;;;;;;;;;;;;;6.94;100.00;101593.50;5450481;26;19997;-73
2024/04/10 01:44:05;;;;;;;;;;;;;;;6.94;100.00;101598.84;5472746;26;19935;-72
2024/04/10 01:46:31;;;;;;;;;;;;;;;6.85;100.00;101600.63;5461428;26;19928;-72
2024/04/10 01:48:56;;;;;;;;;;;;;;;6.83;100.00;101616.84;5452223;26;19929;-73
2024/04/10 01:51:21;;;;;;;;;;;;;;;6.81;100.00;101616.16;5449278;26;20427;-73
2024/04/10 01:53:46;;;;;;;;;;;;;;;6.84;100.00;101623.00;5480210;26;20554;-72
2024/04/10 01:56:11;;;;;;;;;;;;;;;6.88;100.00;101631.59;5464234;26;19946;-73
2024/04/10 01:58:37;;;;;;;;;;;;;;;6.94;100.00;101631.81;5451838;26;19935;-72
2024/04/10 02:01:03;;;;;;;;;;;;;;;6.95;100.00;101629.97;5482384;26;19960;-72
2024/04/10 02:03:28;;;;;;;;;;;;;;;7.04;100.00;101631.75;5478428;26;19935;-72
2024/04/10 02:05:53;;;;;;;;;;;;;;;7.10;100.00;101636.47;5469726;26;19929;-73
2024/04/10 02:08:18;;;;;;;;;;;;;;;7.04;100.00;101644.28;5473306;26;19927;-73
2024/04/10 02:10:44;;;;;;;;;;;;;;;7.00;100.00;101649.09;5459542;26;19937;-73
2024/04/10 02:13:09;;;;;;;;;;;;;;;6.98;100.00;101659.13;5464114;26;20021;-72
2024/04/10 02:15:34;;;;;;;;;;;;;;;6.97;100.00;101663.63;5487806;26;20055;-73
2024/04/10 02:17:59;;;;;;;;;;;;;;;6.90;100.00;101661.69;5488555;26;19996;-72
2024/04/10 02:20:25;;;;;;;;;;;;;;;6.87;100.00;101673.56;5487695;26;20348;-72
2024/04/10 02:22:50;;;;;;;;;;;;;;;6.82;100.00;101676.72;5473457;26;19996;-72
2024/04/10 02:25:15;;;;;;;;;;;;;;;6.82;100.00;101679.38;5474828;26;19928;-73
2024/04/10 02:27:41;;;;;;;;;;;;;;;6.87;100.00;101675.41;5461067;26;19935;-73
2024/04/10 02:30:06;;;;;;;;;;;;;;;6.82;100.00;101676.72;5465369;26;19928;-73
2024/04/10 02:32:32;;;;;;;;;;;;;;;6.79;100.00;101671.66;5479681;26;19928;-73
2024/04/10 02:34:57;;;;;;;;;;;;;;;6.89;100.00;101676.06;5476903;26;19956;-73
2024/04/10 02:37:23;;;;;;;;;;;;;;;6.77;100.00;101683.50;5489562;26;20356;-73
2024/04/10 02:39:49;;;;;;;;;;;;;;;6.73;100.00;101682.94;5489320;26;20356;-73
2024/04/10 02:42:14;;;;;;;;;;;;;;;6.66;100.00;101687.25;5480971;26;19935;-72
2024/04/10 02:44:39;;;;;;;;;;;;;;;6.63;100.00;101695.56;5454218;26;19932;-72
2024/04/10 02:47:04;;;;;;;;;;;;;;;6.65;100.00;101697.09;5453281;26;19929;-73
2024/04/10 02:49:30;;;;;;;;;;;;;;;6.59;100.00;101689.69;5452045;26;20019;-72
2024/04/10 02:51:55;;;;;;;;;;;;;;;6.70;100.00;101699.34;5469203;26;19932;-72
2024/04/10 02:54:23;;;;;;;;;;;;;;;6.88;100.00;101704.69;5453495;26;19928;-73
2024/04/10 02:56:48;;;;;;;;;;;;;;;6.90;100.00;101712.56;5456996;26;19935;-72
2024/04/10 02:59:13;;;;;;;;;;;;;;;6.94;100.00;101705.91;5467054;26;19928;-72
2024/04/10 03:01:39;;;;;;;;;;;;;;;6.74;100.00;101716.75;5456416;26;19992;-72
2024/04/10 03:04:05;;;;;;;;;;;;;;;6.75;100.00;101715.75;5452423;26;19928;-72
2024/04/10 03:06:30;;;;;;;;;;;;;;;6.74;100.00;101711.41;5458651;26;19997;-72
2024/04/10 03:08:55;;;;;;;;;;;;;;;6.75;100.00;101721.09;5483062;26;20554;-72
2024/04/10 03:11:20;;;;;;;;;;;;;;;6.73;100.00;101724.94;5453205;26;19997;-73
2024/04/10 03:13:46;;;;;;;;;;;;;;;6.63;100.00;101725.81;5454792;26;19935;-72
2024/04/10 03:16:11;;;;;;;;;;;;;;;6.65;100.00;101731.03;5453057;26;19929;-72
2024/04/10 03:18:36;;;;;;;;;;;;;;;6.66;100.00;101741.59;5461860;26;20344;-72
2024/04/10 03:21:02;;;;;;;;;;;;;;;6.56;100.00;101747.97;5486368;26;20339;-72
2024/04/10 03:23:27;;;;;;;;;;;;;;;6.75;100.00;101750.53;5484157;26;19944;-72
2024/04/10 03:26:00;;;;;;;;;;;;;;;6.56;100.00;101756.00;5460511;26;19962;-72
2024/04/10 03:28:25;;;;;;;;;;;;;;;6.51;100.00;101762.66;5465858;26;20025;-72
2024/04/10 03:30:53;;;;;;;;;;;;;;;6.65;100.00;101755.13;5468705;26;19940;-72
2024/04/10 03:33:22;;;;;;;;;;;;;;;6.60;100.00;101758.25;5456458;26;20384;-72
2024/04/10 03:35:51;;;;;;;;;;;;;;;6.45;100.00;101765.91;5455133;26;19928;-72
2024/04/10 03:38:16;;;;;;;;;;;;;;;6.33;100.00;101772.44;5457191;26;19929;-73
2024/04/10 03:40:41;;;;;;;;;;;;;;;6.35;100.00;101773.97;5461505;26;20256;-73
2024/04/10 03:43:08;;;;;;;;;;;;;;;6.45;100.00;101779.28;5470917;26;19928;-73
2024/04/10 03:45:33;;;;;;;;;;;;;;;6.56;100.00;101777.41;5455086;26;19941;-73
2024/04/10 03:47:59;;;;;;;;;;;;;;;6.56;100.00;101782.75;5469820;26;20810;-72
2024/04/10 03:50:24;;;;;;;;;;;;;;;6.64;100.00;101780.19;5459029;26;19929;-73
2024/04/10 03:52:55;;;;;;;;;;;;;;;6.44;100.00;101787.47;5453743;26;19936;-72
2024/04/10 03:55:20;;;;;;;;;;;;;;;6.38;100.00;101791.53;5470008;26;19928;-73
2024/04/10 03:57:46;;;;;;;;;;;;;;;6.44;100.00;101807.00;5488009;26;19932;-73
2024/04/10 04:00:11;;;;;;;;;;;;;;;6.41;100.00;101809.16;5467469;26;19928;-73
2024/04/10 04:02:36;;;;;;;;;;;;;;;6.45;100.00;101814.06;5451631;26;19935;-73
2024/04/10 04:05:01;;;;;;;;;;;;;;;6.49;100.00;101810.09;5457770;26;19928;-74
2024/04/10 04:07:26;;;;;;;;;;;;;;;6.55;100.00;101818.50;5467033;26;19935;-73
2024/04/10 04:09:52;;;;;;;;;;;;;;;6.47;100.00;101822.78;5474630;26;20308;-74
2024/04/10 04:12:20;;;;;;;;;;;;;;;6.48;100.00;101819.13;5466817;26;20671;-74
2024/04/10 04:14:48;;;;;;;;;;;;;;;6.52;100.00;101816.97;5452515;26;19936;-74
2024/04/10 04:17:14;;;;;;;;;;;;;;;6.58;100.00;101828.94;5454849;26;20070;-75
2024/04/10 04:19:39;;;;;;;;;;;;;;;6.62;100.00;101825.81;5452148;26;19928;-72
2024/04/10 04:22:04;;;;;;;;;;;;;;;6.52;100.00;101836.56;5466211;26;19928;-72
2024/04/10 04:24:29;;;;;;;;;;;;;;;6.52;100.00;101836.56;5457943;26;19936;-72
2024/04/10 04:26:56;;;;;;;;;;;;;;;6.59;100.00;101847.53;5477807;26;19934;-72
2024/04/10 04:29:21;;;;;;;;;;;;;;;6.51;100.00;101853.59;5475910;26;20378;-72
2024/04/10 04:31:50;;;;;;;;;;;;;;;6.57;100.00;101864.69;5451329;26;19936;-72
2024/04/10 04:34:16;;;;;;;;;;;;;;;6.50;100.00;101867.97;5450884;26;20000;-72
2024/04/10 04:36:41;;;;;;;;;;;;;;;6.51;100.00;101877.69;5452188;26;19937;-73
2024/04/10 04:39:07;;;;;;;;;;;;;;;6.41;100.00;101876.00;5465989;26;19931;-72
2024/04/10 04:41:33;;;;;;;;;;;;;;;6.51;100.00;101882.16;5480762;26;20140;-72
2024/04/10 04:43:58;;;;;;;;;;;;;;;6.53;100.00;101890.91;5484372;26;20383;-73
2024/04/10 04:46:24;;;;;;;;;;;;;;;6.59;100.00;101895.69;5479747;26;19935;-72
2024/04/10 04:48:49;;;;;;;;;;;;;;;6.46;100.00;101896.00;5486626;26;20351;-72
2024/04/10 04:51:15;;;;;;;;;;;;;;;6.47;100.00;101902.16;5487390;26;20420;-73
2024/04/10 04:53:40;;;;;;;;;;;;;;;6.39;100.00;101904.72;5486740;26;19967;-73
2024/04/10 04:56:05;;;;;;;;;;;;;;;6.42;100.00;101907.13;5485644;26;19928;-72
2024/04/10 04:58:30;;;;;;;;;;;;;;;6.47;100.00;101913.72;5483670;26;19932;-72
2024/04/10 05:00:58;;;;;;;;;;;;;;;6.45;100.00;101918.38;5467606;26;19939;-72
2024/04/10 05:06:07;;;;;;;;;;;;;;;6.44;100.00;101922.03;5473846;26;19935;-72
2024/04/10 05:08:33;;;;;;;;;;;;;;;6.44;100.00;101932.72;5453375;26;19928;-72
2024/04/10 05:10:58;;;;;;;;;;;;;;;6.53;100.00;101939.06;5480453;26;20378;-72
2024/04/10 05:13:23;;;;;;;;;;;;;;;6.57;100.00;101945.81;5467899;26;19928;-72
2024/04/10 05:15:55;;;;;;;;;;;;;;;6.50;100.00;101950.91;5452635;26;19928;-72
2024/04/10 05:18:20;;;;;;;;;;;;;;;6.54;100.00;101954.13;5455578;26;19944;-72
2024/04/10 05:20:45;;;;;;;;;;;;;;;6.60;100.00;101956.22;5485319;26;19956;-72
2024/04/10 05:23:11;;;;;;;;;;;;;;;6.67;100.00;101962.69;5470676;26;19936;-73
2024/04/10 05:25:36;;;;;;;;;;;;;;;6.70;100.00;101972.28;5451961;26;19936;-73
2024/04/10 05:28:01;;;;;;;;;;;;;;;6.73;100.00;101981.84;5506978;26;19927;-73
2024/04/10 05:30:27;;;;;;;;;;;;;;;6.64;100.00;101983.53;5495552;26;19932;-73
2024/04/10 05:32:52;;;;;;;;;;;;;;;6.61;100.00;101994.53;5487257;26;19935;-73
2024/04/10 05:35:17;;;;;;;;;;;;;;;6.68;100.00;101996.47;5484732;26;19928;-72
2024/04/10 05:37:42;;;;;;;;;;;;;;;6.68;100.00;101998.34;5486702;26;20344;-73
2024/04/10 05:40:14;;;;;;;;;;;;;;;6.83;100.00;101996.91;5486240;26;19927;-72
2024/04/10 05:42:42;;;;;;;;;;;;;;;6.98;100.00;102007.13;5481242;26;19935;-72
2024/04/10 05:45:08;;;;;;;;;;;;;;;7.18;100.00;102012.44;5463360;26;19928;-73
2024/04/10 05:47:34;;;;;;;;;;;;;;;7.21;100.00;102014.84;5463105;26;19995;-72
2024/04/10 05:49:59;;;;;;;;;;;;;;;7.29;100.00;102017.63;5486364;26;20301;-73
2024/04/10 05:52:24;;;;;;;;;;;;;;;7.35;100.00;102025.06;5461634;26;19928;-73
2024/04/10 05:54:49;;;;;;;;;;;;;;;7.56;100.00;102034.72;5450262;26;19997;-73
2024/04/10 05:57:15;;;;;;;;;;;;;;;7.54;100.00;102034.84;5451356;26;19928;-72
2024/04/10 05:59:40;;;;;;;;;;;;;;;7.48;100.00;102039.97;5450509;26;19928;-72
2024/04/10 06:02:05;;;;;;;;;;;;;;;7.66;100.00;102043.56;5484606;26;20363;-73
2024/04/10 06:04:30;;;;;;;;;;;;;;;7.94;100.00;102048.94;5483189;26;20005;-73
2024/04/10 06:06:56;;;;;;;;;;;;;;;8.13;100.00;102045.28;5467376;26;20000;-72
2024/04/10 06:09:21;;;;;;;;;;;;;;;8.16;100.00;102053.03;5484838;26;19928;-72
2024/04/10 06:11:46;;;;;;;;;;;;;;;8.46;100.00;102055.50;5481533;26;19932;-73
2024/04/10 06:14:11;;;;;;;;;;;;;;;8.60;100.00;102057.69;5487880;26;19934;-73
2024/04/10 06:16:37;;;;;;;;;;;;;;;8.36;100.00;102060.94;5475522;26;19928;-73
2024/04/10 06:19:03;;;;;;;;;;;;;;;8.61;100.00;102074.63;5453528;26;19972;-74
2024/04/10 06:21:28;;;;;;;;;;;;;;;8.42;100.00;102076.41;5461744;26;19986;-73
2024/04/10 06:23:53;;;;;;;;;;;;;;;8.23;100.00;102080.09;5459849;26;19943;-73
2024/04/10 06:26:21;;;;;;;;;;;;;;;8.16;100.00;102084.34;5456834;26;19939;-73
2024/04/10 06:28:47;;;;;;;;;;;;;;;8.01;100.00;102090.22;5482192;26;19928;-74
2024/04/10 06:31:13;;;;;;;;;;;;;;;8.02;100.00;102086.56;5486257;26;19936;-73
2024/04/10 06:33:39;;;;;;;;;;;;;;;8.09;100.00;102094.84;5485618;26;19935;-73
2024/04/10 06:36:04;;;;;;;;;;;;;;;7.95;100.00;102103.38;5482889;26;19932;-73
2024/04/10 06:38:32;;;;;;;;;;;;;;;8.04;100.00;102102.47;5485165;26;19944;-73
2024/04/10 06:40:59;;;;;;;;;;;;;;;8.12;100.00;102107.13;5483098;26;19944;-73
2024/04/10 06:43:24;;;;;;;;;;;;;;;8.10;100.00;102111.78;5454361;26;19956;-72
2024/04/10 06:45:59;;;;;;;;;;;;;;;8.18;100.00;102122.59;5477915;26;19997;-73
2024/04/10 06:48:25;;;;;;;;;;;;;;;8.67;100.00;102126.84;5485302;26;19935;-73
2024/04/10 06:50:59;;;;;;;;;;;;;;;8.61;100.00;102120.25;5495571;26;19928;-73
2024/04/10 06:53:24;;;;;;;;;;;;;;;8.52;100.00;102122.00;5475071;26;19973;-73
2024/04/10 06:55:54;;;;;;;;;;;;;;;8.46;100.00;102136.84;5482471;26;20482;-73
2024/04/10 06:58:21;;;;;;;;;;;;;;;8.69;100.00;102139.13;5472156;26;20312;-72
2024/04/10 07:01:02;;;;;;;;;;;;;;;8.80;100.00;102138.91;5471152;26;19952;-73
2024/04/10 07:03:28;;;;;;;;;;;;;;;8.67;100.00;102140.25;5457255;26;19935;-73
2024/04/10 07:06:03;;;;;;;;;;;;;;;8.75;100.00;102143.88;5491785;26;20323;-73
2024/04/10 07:08:28;;;;;;;;;;;;;;;8.88;100.00;102154.25;5490230;26;19956;-73
2024/04/10 07:10:53;;;;;;;;;;;;;;;8.95;100.00;102158.00;5489813;26;19992;-73
2024/04/10 07:13:18;;;;;;;;;;;;;;;9.14;100.00;102161.53;5490922;26;19928;-73
2024/04/10 07:15:44;;;;;;;;;;;;;;;9.17;100.00;102163.06;5489052;26;20255;-73
2024/04/10 07:18:09;;;;;;;;;;;;;;;9.42;100.00;102165.94;5472999;26;19928;-73
2024/04/10 07:20:37;;;;;;;;;;;;;;;9.28;100.00;102183.47;5455065;26;19928;-73
2024/04/10 07:23:04;;;;;;;;;;;;;;;9.38;100.00;102174.31;5488515;26;19935;-73
2024/04/10 07:25:36;;;;;;;;;;;;;;;9.60;100.00;102182.03;5489657;26;19935;-73
2024/04/10 07:28:01;;;;;;;;;;;;;;;9.23;100.00;102189.31;5470179;26;20271;-74
2024/04/10 07:30:26;;;;;;;;;;;;;;;9.33;100.00;102194.59;5487265;26;19936;-73
2024/04/10 07:32:51;;;;;;;;;;;;;;;9.17;100.00;102197.97;5476684;26;19928;-73
2024/04/10 07:35:17;;;;;;;;;;;;;;;9.20;100.00;102206.56;5489733;26;19940;-74
2024/04/10 07:37:42;;;;;;;;;;;;;;;9.33;98.92;102199.97;5488781;26;19932;-73
2024/04/10 07:40:08;;;;;;;;;;;;;;;9.48;100.00;102201.09;5488666;26;19928;-73
2024/04/10 07:42:34;;;;;;;;;;;;;;;9.48;100.00;102205.63;5489424;26;19996;-74
2024/04/10 07:44:59;;;;;;;;;;;;;;;9.64;98.82;102204.91;5488474;26;20429;-75
2024/04/10 07:47:27;;;;;;;;;;;;;;;9.92;96.47;102207.44;5484311;26;20028;-74
2024/04/10 07:49:53;;;;;;;;;;;;;;;10.72;93.49;102209.84;5482106;26;19929;-74
2024/04/10 07:52:18;;;;;;;;;;;;;;;11.93;85.25;102226.38;5462615;26;19928;-73
2024/04/10 07:54:43;;;;;;;;;;;;;;;11.92;82.71;102230.06;5487573;26;19934;-73
2024/04/10 07:57:09;;;;;;;;;;;;;;;11.87;83.47;102221.66;5481375;26;19929;-73
2024/04/10 07:59:34;;;;;;;;;;;;;;;12.61;80.37;102233.25;5453255;26;19929;-73
2024/04/10 08:02:02;;;;;;;;;;;;;;;13.18;75.97;102232.03;5487984;26;19939;-73
2024/04/10 08:04:27;;;;;;;;;;;;;;;13.57;73.82;102228.38;5471687;26;19928;-74
2024/04/10 08:06:55;;;;;;;;;;;;;;;13.27;73.00;102247.19;5489171;26;19935;-73
2024/04/10 08:09:22;;;;;;;;;;;;;;;13.38;72.43;102240.53;5487684;26;19935;-73
2024/04/10 08:11:47;;;;;;;;;;;;;;;13.79;69.54;102242.06;5488089;26;19999;-73
2024/04/10 08:14:12;;;;;;;;;;;;;;;14.71;65.01;102248.13;5475458;26;19932;-73
2024/04/10 08:16:37;;;;;;;;;;;;;;;16.67;56.71;102251.34;5451702;26;19957;-74
2024/04/10 08:19:03;;;;;;;;;;;;;;;17.06;55.62;102260.69;5451301;26;19937;-74
2024/04/10 08:21:33;;;;;;;;;;;;;;;15.52;57.64;102252.50;5452762;26;19936;-73
2024/04/10 08:23:58;;;;;;;;;;;;;;;14.99;62.86;102250.97;5467203;26;19937;-73
2024/04/10 08:26:24;;;;;;;;;;;;;;;14.47;62.32;102254.69;5458299;26;19940;-74
2024/04/10 08:28:49;;;;;;;;;;;;;;;16.36;57.47;102261.66;5452877;26;19940;-73
2024/04/10 08:31:17;;;;;;;;;;;;;;;16.06;57.34;102261.91;5451772;26;19928;-73
2024/04/10 08:33:42;;;;;;;;;;;;;;;15.51;58.37;102267.13;5450945;26;19936;-74
2024/04/10 08:36:10;;;;;;;;;;;;;;;15.80;59.19;102270.69;5452833;26;19935;-73
2024/04/10 08:38:36;;;;;;;;;;;;;;;15.81;56.98;102285.06;5451330;26;19997;-73
2024/04/10 08:41:01;;;;;;;;;;;;;;;16.12;56.38;102282.00;5451221;26;19936;-73
2024/04/10 08:43:31;;;;;;;;;;;;;;;15.41;57.64;102285.56;5452513;26;19928;-73
2024/04/10 08:45:56;;;;;;;;;;;;;;;13.70;64.59;102279.19;5449831;26;19973;-73
2024/04/10 08:48:22;;;;;;;;;;;;;;;14.04;65.21;102285.97;5450892;26;19929;-73
2024/04/10 08:50:47;;;;;;;;;;;;;;;13.75;64.63;102290.31;5453059;26;19965;-75
2024/04/10 08:53:13;;;;;;;;;;;;;;;12.97;68.09;102298.41;5471523;26;20437;-73
2024/04/10 08:55:40;;;;;;;;;;;;;;;12.36;71.30;102300.84;5451039;26;20428;-73
2024/04/10 08:58:05;;;;;;;;;;;;;;;12.22;72.47;102297.84;5453950;26;19928;-73
2024/04/10 09:00:30;;;;;;;;;;;;;;;13.80;65.71;102304.09;5481941;26;19928;-73
2024/04/10 09:02:56;;;;;;;;;;;;;;;14.88;60.92;102308.38;5487839;26;19935;-73
2024/04/10 09:05:26;;;;;;;;;;;;;;;15.46;57.63;102312.97;5488625;26;19928;-73
2024/04/10 09:08:00;;;;;;;;;;;;;;;16.97;50.75;102324.50;5496007;26;19977;-72
2024/04/10 09:10:26;;;;;;;;;;;;;;;17.75;48.47;102338.69;5455503;26;19997;-72
2024/04/10 09:13:00;;;;;;;;;;;;;;;17.65;47.63;102334.47;5474816;26;20364;-72
2024/04/10 09:15:25;;;;;;;;;;;;;;;16.74;48.54;102333.81;5460039;26;19933;-74
2024/04/10 09:17:53;;;;;;;;;;;;;;;15.46;54.04;102324.66;5455903;26;19980;-73
2024/04/10 09:20:19;;;;;;;;;;;;;;;15.33;55.76;102329.13;5452071;26;19936;-72
2024/04/10 09:22:44;;;;;;;;;;;;;;;14.12;58.72;102324.81;5466520;26;20343;-72
2024/04/10 09:25:12;;;;;;;;;;;;;;;12.56;66.95;102325.63;5483704;26;20343;-72
2024/04/10 09:27:38;;;;;;;;;;;;;;;12.66;66.95;102325.41;5455580;26;20371;-72
2024/04/10 09:30:05;;;;;;;;;;;;;;;12.19;70.44;102341.38;5465920;26;19928;-72
2024/04/10 09:32:32;;;;;;;;;;;;;;;12.02;69.57;102337.88;5490174;26;19964;-72
2024/04/10 09:34:57;;;;;;;;;;;;;;;12.52;69.75;102335.94;5488573;26;19928;-72
2024/04/10 09:37:22;;;;;;;;;;;;;;;14.48;63.94;102348.47;5448619;26;19965;-72
2024/04/10 09:39:50;;;;;;;;;;;;;;;15.52;58.08;102354.78;5450446;26;19935;-72
2024/04/10 09:42:33;;;;;;;;;;;;;;;14.69;58.15;102354.03;5453961;26;19935;-72
2024/04/10 09:46:33;;;;;;;;;;;;;;;13.69;59.83;102341.59;5530528;25;19939;-71
2024/04/10 09:48:58;;;;;;;;;;;;;;;13.59;58.90;102358.09;5532590;25;20344;-71
2024/04/10 09:51:23;;;;;;;;;;;;;;;13.78;58.45;102345.94;5499851;25;19927;-72
2024/04/10 09:53:48;;;;;;;;;;;;;;;13.91;57.89;102356.16;5499860;26;20267;-72
2024/04/10 09:56:14;;;;;;;;;;;;;;;13.61;58.80;102353.31;5515129;26;19935;-71
2024/04/10 09:58:39;;;;;;;;;;;;;;;13.23;59.67;102348.63;5487902;26;20317;-71
2024/04/10 10:01:04;;;;;;;;;;;;;;;13.04;63.27;102356.16;5492447;26;19927;-72
2024/04/10 10:03:30;;;;;;;;;;;;;;;12.38;66.67;102344.72;5532370;26;19946;-71
2024/04/10 10:06:04;;;;;;;;;;;;;;;12.37;67.20;102338.50;5532518;25;19928;-72
2024/04/10 10:08:32;;;;;;;;;;;;;;;12.74;64.46;102345.16;5533091;26;19935;-72
2024/04/10 10:10:57;;;;;;;;;;;;;;;13.07;62.49;102346.00;5556583;25;20258;-72
2024/04/10 10:13:28;;;;;;;;;;;;;;;12.83;60.75;102350.50;5560022;25;19972;-72
2024/04/10 10:16:00;;;;;;;;;;;;;;;12.47;61.68;102346.41;5532960;26;19934;-71
2024/04/10 10:18:26;;;;;;;;;;;;;;;12.77;62.63;102352.06;5528479;26;19933;-72
2024/04/10 10:21:03;;;;;;;;;;;;;;;13.00;61.56;102362.09;5517518;26;20328;-73
2024/04/10 10:23:28;;;;;;;;;;;;;;;12.27;63.60;102354.88;5524920;25;19927;-72
2024/04/10 10:25:53;;;;;;;;;;;;;;;12.30;65.02;102369.06;5549481;25;19934;-72
2024/04/10 10:28:19;;;;;;;;;;;;;;;12.44;64.77;102362.97;5584841;25;19939;-72
2024/04/10 10:30:44;;;;;;;;;;;;;;;12.41;64.34;102366.00;5550764;25;19926;-73
2024/04/10 10:33:09;;;;;;;;;;;;;;;12.27;64.21;102370.22;5590427;25;19955;-73
2024/04/10 10:35:34;;;;;;;;;;;;;;;11.91;64.56;102374.13;5497396;26;20279;-73
2024/04/10 10:38:00;;;;;;;;;;;;;;;11.90;65.62;102375.13;5502881;25;19984;-73
2024/04/10 10:40:25;;;;;;;;;;;;;;;12.20;63.29;102372.78;5533701;25;19935;-72
2024/04/10 10:43:03;;;;;;;;;;;;;;;12.10;64.04;102382.91;5533100;25;19996;-73
2024/04/10 10:45:29;;;;;;;;;;;;;;;12.67;61.96;102387.38;5530340;26;19928;-73
2024/04/10 10:47:54;;;;;;;;;;;;;;;13.11;60.09;102394.16;5527239;25;19933;-73
2024/04/10 10:50:20;;;;;;;;;;;;;;;13.04;60.22;102385.91;5559672;25;19928;-73
2024/04/10 10:52:45;;;;;;;;;;;;;;;12.81;62.38;102387.66;5531271;26;19932;-73
2024/04/10 10:55:16;;;;;;;;;;;;;;;13.41;59.86;102382.72;5530640;25;19928;-73
2024/04/10 10:57:42;;;;;;;;;;;;;;;13.34;59.79;102386.09;5517416;25;19941;-72
2024/04/10 11:00:20;;;;;;;;;;;;;;;12.96;59.78;102385.94;5514713;25;19928;-74
2024/04/10 11:02:45;;;;;;;;;;;;;;;13.59;58.50;102393.28;5515078;25;19927;-72
2024/04/10 11:05:11;;;;;;;;;;;;;;;12.80;59.37;102383.28;5516559;26;19935;-72
2024/04/10 11:07:36;;;;;;;;;;;;;;;12.95;62.11;102394.22;5515124;26;20344;-72
2024/04/10 11:10:11;;;;;;;;;;;;;;;13.67;58.19;102395.06;5515309;26;20248;-72
2024/04/10 11:12:41;;;;;;;;;;;;;;;13.11;59.67;102394.16;5517470;25;19928;-73
2024/04/10 11:15:10;;;;;;;;;;;;;;;12.83;60.69;102386.50;5514387;26;19928;-73
2024/04/10 11:17:36;;;;;;;;;;;;;;;13.27;57.43;102382.41;5515181;26;19929;-73
2024/04/10 11:20:01;;;;;;;;;;;;;;;13.07;58.10;102378.47;5515479;26;19934;-72
2024/04/10 11:22:29;;;;;;;;;;;;;;;13.74;54.17;102388.75;5514186;25;19935;-72
2024/04/10 11:24:54;;;;;;;;;;;;;;;13.71;55.93;102388.25;5514704;26;19967;-72
2024/04/10 11:27:20;;;;;;;;;;;;;;;13.90;55.74;102389.66;5516823;26;19976;-72
2024/04/10 11:29:50;;;;;;;;;;;;;;;13.04;57.76;102387.78;5513596;26;19971;-73
2024/04/10 11:32:15;;;;;;;;;;;;;;;12.72;59.54;102384.16;5514821;25;20288;-72
2024/04/10 11:34:40;;;;;;;;;;;;;;;13.17;56.75;102382.63;5515724;26;19946;-72
2024/04/10 11:37:06;;;;;;;;;;;;;;;13.58;54.29;102387.00;5514350;26;20360;-72
2024/04/10 11:39:31;;;;;;;;;;;;;;;13.14;55.44;102382.97;5513277;26;20372;-72
2024/04/10 11:41:58;;;;;;;;;;;;;;;12.99;56.23;102388.28;5516384;26;20359;-72
2024/04/10 11:44:27;;;;;;;;;;;;;;;12.86;58.03;102396.97;5513452;25;19936;-72
2024/04/10 11:46:52;;;;;;;;;;;;;;;12.67;59.83;102397.34;5514819;25;19934;-72
2024/04/10 11:49:18;;;;;;;;;;;;;;;12.21;59.85;102392.53;5514887;25;19932;-72
2024/04/10 11:51:43;;;;;;;;;;;;;;;12.35;59.16;102393.72;5513571;25;19938;-72
2024/04/10 11:54:08;;;;;;;;;;;;;;;13.28;56.19;102413.84;5514357;25;19936;-72
2024/04/10 11:56:33;;;;;;;;;;;;;;;15.05;49.32;102395.81;5514917;25;19934;-72
2024/04/10 11:58:59;;;;;;;;;;;;;;;16.26;44.83;102407.06;5514602;26;20354;-72
2024/04/10 12:01:24;;;;;;;;;;;;;;;15.11;47.06;102416.72;5514501;26;19927;-72
2024/04/10 12:03:49;;;;;;;;;;;;;;;14.23;49.74;102413.75;5514688;26;19927;-72
2024/04/10 12:06:14;;;;;;;;;;;;;;;13.34;51.95;102417.72;5514374;26;19928;-72
2024/04/10 12:08:39;;;;;;;;;;;;;;;13.13;53.41;102418.31;5514507;25;19943;-74
2024/04/10 12:11:05;;;;;;;;;;;;;;;13.12;52.77;102422.88;5514851;26;19931;-72
2024/04/10 12:13:30;;;;;;;;;;;;;;;13.12;52.83;102422.88;5514829;25;19927;-72
2024/04/10 12:15:55;;;;;;;;;;;;;;;15.10;48.76;102425.06;5513398;25;19988;-72
2024/04/10 12:18:21;;;;;;;;;;;;;;;16.40;44.97;102433.34;5513986;26;19927;-72
2024/04/10 12:20:46;;;;;;;;;;;;;;;16.38;44.55;102421.81;5513169;26;19960;-73
2024/04/10 12:23:11;;;;;;;;;;;;;;;15.65;44.88;102420.06;5514688;25;19995;-72
2024/04/10 12:25:36;;;;;;;;;;;;;;;14.18;47.03;102427.84;5514099;26;20599;-72
2024/04/10 12:28:02;;;;;;;;;;;;;;;14.07;48.23;102426.41;5515183;26;19936;-72
2024/04/10 12:30:27;;;;;;;;;;;;;;;14.48;46.36;102422.50;5512679;26;19939;-72
2024/04/10 12:32:52;;;;;;;;;;;;;;;14.04;48.44;102425.91;5513816;26;19939;-72
2024/04/10 12:38:08;;;;;;;;;;;;;;;14.17;45.68;102417.19;5514044;25;20423;-72
2024/04/10 12:40:34;;;;;;;;;;;;;;;13.73;46.63;102418.69;5513813;26;20498;-72